Time;durP1;ratioP1;P1;durP2;ratioP2;P2;SDS_P1;SDS_P2;PMS_P1;PMS_P2;Temp;Humidity;BMP_temperature;BMP_pressure;BME280_temperature;BME280_humidity;BME280_pressure;Samples;Min_cycle;Max_cycle;Signal;HPM_P1;HPM_P2
2021/03/03 06:01:08;;;;;;;18.50;15.85;;;;;;;9.38;46.15;96149.53;5590897;23;20509;-85
2021/03/03 06:03:34;;;;;;;32.35;25.20;;;;;;;9.07;48.14;96159.13;4898507;29;20077;-79
2021/03/03 06:05:59;;;;;;;30.20;26.75;;;;;;;12.07;41.63;96119.13;4865027;29;20468;-79
2021/03/03 06:08:26;;;;;;;25.88;23.13;;;;;;;8.03;48.02;96165.38;4852099;29;20048;-79
2021/03/03 06:10:52;;;;;;;25.45;22.67;;;;;;;12.33;40.67;96147.72;4845130;29;20479;-83
2021/03/03 06:13:17;;;;;;;18.48;16.45;;;;;;;9.00;47.84;96171.75;4854579;29;20041;-80
2021/03/03 06:15:43;;;;;;;19.40;16.90;;;;;;;12.53;42.21;96166.53;4856470;29;20077;-79
2021/03/03 06:18:10;;;;;;;16.60;14.95;;;;;;;14.44;36.88;96167.53;4852234;29;20032;-80
2021/03/03 06:20:37;;;;;;;17.58;15.88;;;;;;;13.85;37.91;96165.97;4847063;29;20038;-84
2021/03/03 06:23:19;;;;;;;17.60;16.05;;;;;;;14.98;35.02;96160.72;4861093;29;20053;-78
2021/03/03 06:25:46;;;;;;;19.15;17.30;;;;;;;14.25;36.66;96169.44;4852638;29;20034;-78
2021/03/03 06:28:11;;;;;;;20.10;16.83;;;;;;;15.04;35.42;96178.31;4839691;29;20055;-83
2021/03/03 06:30:37;;;;;;;17.48;15.77;;;;;;;15.96;34.40;96175.00;4852730;29;20073;-84
2021/03/03 06:33:06;;;;;;;17.85;15.73;;;;;;;12.06;40.30;96177.25;4823978;29;20038;-83
2021/03/03 06:35:35;;;;;;;;;;;;;;;15.05;35.06;96172.94;4838826;29;20158;-83
2021/03/03 06:38:01;;;;;;;17.42;15.63;;;;;;;15.64;35.44;96170.75;4855233;29;19978;-81
2021/03/03 06:40:27;;;;;;;17.10;15.63;;;;;;;14.41;36.74;96168.66;4847847;29;20495;-80
2021/03/03 06:42:53;;;;;;;16.75;15.20;;;;;;;18.01;31.40;96165.50;4841640;29;20041;-83
2021/03/03 06:45:45;;;;;;;19.05;16.05;;;;;;;18.86;30.38;96171.50;4841812;29;20041;-83
2021/03/03 06:48:10;;;;;;;18.55;16.83;;;;;;;18.36;30.33;96166.44;4854288;29;20507;-80
2021/03/03 06:50:36;;;;;;;17.85;16.20;;;;;;;18.03;31.27;96171.38;4839941;29;20041;-82
2021/03/03 06:53:02;;;;;;;19.70;17.95;;;;;;;15.57;35.67;96172.44;4840960;29;20456;-83
2021/03/03 06:55:49;;;;;;;19.02;16.98;;;;;;;18.35;31.26;96168.25;4856233;29;20037;-83
2021/03/03 06:58:29;;;;;;;19.15;17.30;;;;;;;15.35;35.33;96175.78;4853472;29;20038;-85
2021/03/03 07:00:57;;;;;;;21.13;17.15;;;;;;;19.05;29.63;96175.25;4825179;29;20593;-84
2021/03/03 07:03:35;;;;;;;18.77;17.17;;;;;;;20.83;27.35;96163.47;4860044;29;20037;-82
2021/03/03 07:06:01;;;;;;;18.83;17.23;;;;;;;19.02;28.79;96172.19;4854484;29;20025;-84
2021/03/03 07:08:27;;;;;;;18.58;16.77;;;;;;;21.61;25.79;96169.59;4836212;29;20205;-81
2021/03/03 07:10:52;;;;;;;18.83;17.13;;;;;;;18.73;30.09;96173.22;4867056;29;20116;-85
2021/03/03 07:13:18;;;;;;;18.70;17.20;;;;;;;19.05;29.11;96170.00;4856120;29;20033;-86
2021/03/03 07:15:44;;;;;;;19.33;17.50;;;;;;;21.21;25.69;96167.06;4841301;29;20036;-86
2021/03/03 07:18:37;;;;;;;19.23;17.42;;;;;;;19.13;28.60;96175.13;4855940;29;20030;-86
2021/03/03 07:21:04;;;;;;;19.45;17.73;;;;;;;20.28;26.70;96162.03;4857285;29;20045;-84
2021/03/03 07:23:53;;;;;;;20.15;18.25;;;;;;;21.85;24.36;96166.22;4840667;29;20041;-85
2021/03/03 07:26:18;;;;;;;20.65;18.67;;;;;;;18.88;26.88;96168.66;4852567;29;20033;-84
2021/03/03 07:28:44;;;;;;;19.95;18.25;;;;;;;19.02;26.80;96164.31;4856526;29;20041;-85
2021/03/03 07:31:11;;;;;;;20.45;18.35;;;;;;;19.66;27.68;96162.25;4855642;29;20033;-85
2021/03/03 07:33:36;;;;;;;18.58;17.05;;;;;;;22.14;24.44;96154.31;4857299;29;20530;-85
2021/03/03 07:36:03;;;;;;;20.17;18.25;;;;;;;17.42;30.06;96153.50;4870401;29;20041;-85
2021/03/03 07:38:34;;;;;;;20.30;18.40;;;;;;;14.58;33.70;96157.22;4857180;29;20125;-85
2021/03/03 07:41:11;;;;;;;19.40;17.67;;;;;;;18.83;29.40;96150.06;4845450;29;20060;-84
2021/03/03 07:43:37;;;;;;;19.38;17.50;;;;;;;20.44;26.54;96151.94;4869713;29;20037;-82
2021/03/03 07:46:07;;;;;;;20.42;18.23;;;;;;;15.67;32.25;96152.13;4841405;29;20118;-87
2021/03/03 07:48:33;;;;;;;19.50;17.85;;;;;;;19.06;28.53;96149.81;4839325;29;20082;-83
2021/03/03 07:50:59;;;;;;;19.77;17.77;;;;;;;19.38;28.39;96146.53;4840909;29;20411;-83
2021/03/03 07:53:25;;;;;;;20.80;18.88;;;;;;;12.40;43.23;96150.53;4870928;29;20034;-83
2021/03/03 07:55:55;;;;;;;20.85;18.85;;;;;;;13.68;41.83;96141.69;4840577;29;20069;-85
2021/03/03 07:58:20;;;;;;;21.90;19.80;;;;;;;10.64;46.61;96154.53;4840035;29;20029;-88
2021/03/03 08:00:45;;;;;;;24.00;21.35;;;;;;;8.51;52.08;96151.00;4854316;29;20041;-82
2021/03/03 08:03:11;;;;;;;24.95;20.42;;;;;;;8.19;54.22;96054.78;5137740;23;20267;-78
2021/03/03 08:05:38;;;;;;;23.70;20.15;;;;;;;10.63;47.78;96033.72;4901149;29;20028;-87
2021/03/03 08:08:13;;;;;;;24.90;20.25;;;;;;;10.48;50.64;96156.91;4897483;29;20037;-84
2021/03/03 08:10:40;;;;;;;23.50;20.05;;;;;;;11.18;46.96;96111.44;4893238;29;20104;-86
2021/03/03 08:13:13;;;;;;;31.83;21.17;;;;;;;12.01;46.00;96145.69;4892153;29;20040;-86
2021/03/03 08:15:48;;;;;;;27.60;21.42;;;;;;;10.56;49.87;96149.25;4889724;29;20134;-88
2021/03/03 08:18:17;;;;;;;21.90;19.42;;;;;;;10.90;49.08;96154.72;4891191;29;20109;-87
2021/03/03 08:20:43;;;;;;;28.45;20.70;;;;;;;9.87;51.60;96156.38;4884179;29;20036;-80
2021/03/03 08:23:09;;;;;;;22.38;19.20;;;;;;;10.98;49.93;96155.63;4876689;29;20040;-87
2021/03/03 08:28:36;;;;;;;23.95;18.60;;;;;;;12.71;45.35;96146.53;4974098;23;20057;-86
2021/03/03 08:31:04;;;;;;;25.60;20.88;;;;;;;12.74;46.39;96146.22;4894086;29;20099;-83
2021/03/03 08:33:31;;;;;;;22.08;19.70;;;;;;;13.13;45.55;96150.00;4888279;29;20064;-85
2021/03/03 08:35:56;;;;;;;23.75;19.77;;;;;;;12.61;46.47;96141.44;4894137;29;20024;-80
2021/03/03 08:38:21;;;;;;;27.20;21.60;;;;;;;12.96;45.08;96145.69;4893558;29;20467;-85
2021/03/03 08:40:47;;;;;;;26.70;21.27;;;;;;;13.19;45.39;96144.19;4894683;29;20478;-86
2021/03/03 08:43:48;;;;;;;25.15;21.75;;;;;;;11.76;49.46;96143.84;4877668;29;20033;-84
2021/03/03 08:46:20;;;;;;;24.52;21.40;;;;;;;14.13;42.96;96139.47;4867586;29;20026;-84
2021/03/03 08:48:57;;;;;;;25.30;21.42;;;;;;;13.74;43.98;96141.09;4878287;29;20529;-76
2021/03/03 08:51:29;;;;;;;24.98;22.08;;;;;;;13.69;44.87;96133.75;4875002;29;20491;-82
2021/03/03 08:53:56;;;;;;;25.08;21.70;;;;;;;14.18;44.09;96129.38;4876019;29;20460;-86
2021/03/03 08:56:40;;;;;;;26.52;21.48;;;;;;;13.15;47.36;96126.44;4874894;29;20821;-83
2021/03/03 08:59:12;;;;;;;25.65;21.30;;;;;;;14.05;43.43;96128.25;4888053;29;20040;-80
2021/03/03 09:02:06;;;;;;;26.63;21.98;;;;;;;13.45;44.46;96122.47;4886463;29;20037;-82
2021/03/03 09:04:32;;;;;;;24.40;21.83;;;;;;;14.13;43.87;96123.00;4878248;29;20502;-83
2021/03/03 09:07:01;;;;;;;25.63;22.02;;;;;;;13.87;44.04;96123.19;4885641;29;20475;-78
2021/03/03 09:09:27;;;;;;;25.00;21.48;;;;;;;14.52;42.78;96115.34;4883571;29;20036;-81
2021/03/03 09:12:04;;;;;;;25.05;20.38;;;;;;;14.55;42.14;96115.03;4890450;29;20041;-83
2021/03/03 09:14:30;;;;;;;23.05;20.33;;;;;;;14.78;42.04;96118.56;4892531;29;20028;-84
2021/03/03 09:16:57;;;;;;;23.13;19.95;;;;;;;14.02;43.41;96120.75;4881329;29;20029;-76
2021/03/03 09:19:23;;;;;;;22.50;20.20;;;;;;;14.66;42.49;96122.50;4884951;29;20582;-83
2021/03/03 09:21:48;;;;;;;23.17;19.58;;;;;;;15.89;41.39;96121.81;4884340;29;20028;-74
2021/03/03 09:24:14;;;;;;;20.73;18.75;;;;;;;15.45;40.12;96111.91;4885806;29;20072;-79
2021/03/03 09:26:40;;;;;;;22.60;20.17;;;;;;;15.56;40.64;96122.00;4879342;29;20083;-82
2021/03/03 09:29:05;;;;;;;22.30;19.90;;;;;;;13.12;44.19;96114.56;4874987;29;20040;-79
2021/03/03 09:31:34;;;;;;;21.10;19.13;;;;;;;15.41;42.28;96112.44;4886082;29;20561;-79
2021/03/03 09:34:00;;;;;;;;;;;;;;;16.18;39.26;96109.63;4882651;29;20084;-78
2021/03/03 09:36:25;;;;;;;23.03;19.83;;;;;;;16.02;39.45;96111.56;4877532;29;19919;-77
2021/03/03 09:39:01;;;;;;;23.00;20.63;;;;;;;16.04;39.92;96110.41;4877124;29;20276;-82
2021/03/03 09:41:26;;;;;;;22.05;19.75;;;;;;;16.49;39.36;96099.06;4875021;29;20036;-81
2021/03/03 09:44:06;;;;;;;26.52;20.00;;;;;;;15.97;39.62;96095.59;4873365;29;20033;-80
2021/03/03 09:46:50;;;;;;;23.02;20.60;;;;;;;17.36;36.94;96097.44;4874933;29;20037;-79
2021/03/03 09:49:35;;;;;;;22.75;20.55;;;;;;;17.14;38.06;96101.81;4892032;29;20099;-81
2021/03/03 09:52:00;;;;;;;22.70;20.45;;;;;;;16.74;38.79;96097.03;4876991;29;20506;-79
2021/03/03 09:54:35;;;;;;;23.08;19.70;;;;;;;14.98;42.57;96085.88;4893569;29;20064;-79
2021/03/03 09:57:02;;;;;;;22.67;18.92;;;;;;;15.93;40.83;96089.91;4893031;29;20052;-79
2021/03/03 09:59:29;;;;;;;21.90;19.60;;;;;;;16.32;40.18;96081.88;4882842;29;20540;-79
2021/03/03 10:01:55;;;;;;;22.92;20.58;;;;;;;17.18;37.57;96081.28;4873982;29;20037;-80
2021/03/03 10:04:20;;;;;;;23.20;20.98;;;;;;;17.92;36.99;96069.59;4873577;29;20434;-80
2021/03/03 10:06:46;;;;;;;20.92;18.73;;;;;;;18.43;36.25;96081.50;4876178;29;20040;-79
2021/03/03 10:09:11;;;;;;;22.70;20.25;;;;;;;18.89;35.32;96060.84;4889529;29;20039;-79
2021/03/03 10:11:38;;;;;;;19.25;17.15;;;;;;;16.52;38.14;96072.53;4892423;29;20037;-79
2021/03/03 10:14:08;;;;;;;21.40;19.30;;;;;;;16.79;37.26;96063.31;4891365;29;20025;-77
2021/03/03 10:16:33;;;;;;;20.85;18.65;;;;;;;19.09;33.88;96057.50;4892923;29;20089;-79
2021/03/03 10:19:06;;;;;;;22.08;19.80;;;;;;;17.07;37.01;96059.03;4891475;29;20072;-79
2021/03/03 10:21:32;;;;;;;22.23;19.90;;;;;;;16.14;39.86;96060.50;4891983;29;20426;-77
2021/03/03 10:23:57;;;;;;;22.23;19.70;;;;;;;15.15;41.76;96055.31;4892354;29;20035;-80
2021/03/03 10:26:45;;;;;;;22.40;19.05;;;;;;;15.31;41.22;96050.78;4878099;29;20032;-78
2021/03/03 10:29:10;;;;;;;20.52;18.17;;;;;;;14.83;40.10;96037.22;4884664;29;20391;-81
2021/03/03 10:31:36;;;;;;;20.10;16.45;;;;;;;14.93;42.25;96041.22;4890817;29;20728;-80
2021/03/03 10:34:09;;;;;;;16.88;15.18;;;;;;;15.34;38.73;96028.78;4874274;29;20037;-79
2021/03/03 10:36:40;;;;;;;15.93;13.77;;;;;;;14.98;37.64;96020.66;4892226;29;20029;-80
2021/03/03 10:39:06;;;;;;;19.63;15.60;;;;;;;15.41;38.72;96018.44;4889677;29;20029;-79
2021/03/03 10:41:33;;;;;;;18.98;16.52;;;;;;;14.77;40.46;96008.19;4892190;29;20418;-81
2021/03/03 10:43:59;;;;;;;22.83;16.40;;;;;;;15.63;38.88;96012.44;4890092;29;20072;-81
2021/03/03 10:46:27;;;;;;;22.67;17.17;;;;;;;14.38;42.19;96010.00;4891290;29;20112;-79
2021/03/03 10:49:10;;;;;;;20.27;18.08;;;;;;;15.40;40.05;95994.13;4891900;29;20088;-81
2021/03/03 10:51:37;;;;;;;23.42;18.40;;;;;;;15.53;40.23;95988.34;4891264;29;20047;-77
2021/03/03 10:54:02;;;;;;;25.73;18.52;;;;;;;14.93;41.08;95989.03;4890158;29;20490;-81
2021/03/03 10:56:33;;;;;;;22.77;17.35;;;;;;;14.89;40.21;95979.94;4890500;29;20043;-80
2021/03/03 10:58:59;;;;;;;29.70;16.33;;;;;;;14.58;41.28;95979.94;4891063;29;20043;-80
2021/03/03 11:01:45;;;;;;;21.33;16.33;;;;;;;14.59;41.12;95983.34;4890506;29;20045;-79
2021/03/03 11:04:10;;;;;;;21.88;16.83;;;;;;;15.24;39.65;95975.97;4890690;29;20157;-80
2021/03/03 11:06:36;;;;;;;20.92;17.30;;;;;;;15.07;41.07;95970.06;4891860;29;20116;-80
2021/03/03 11:09:14;;;;;;;20.55;18.27;;;;;;;15.76;40.33;95966.44;4888850;29;20604;-77
2021/03/03 11:11:53;;;;;;;21.38;18.90;;;;;;;14.77;40.54;95963.03;4888670;29;20041;-81
2021/03/03 11:14:18;;;;;;;23.17;17.70;;;;;;;15.02;41.42;95958.50;4890531;29;20032;-78
2021/03/03 11:16:47;;;;;;;26.10;18.17;;;;;;;14.51;41.98;95947.69;4892342;29;20292;-78
2021/03/03 11:19:13;;;;;;;20.63;16.27;;;;;;;14.72;41.89;95945.31;4894074;29;20418;-78
2021/03/03 11:21:38;;;;;;;21.88;18.17;;;;;;;15.20;40.79;95940.75;4894810;29;20032;-80
2021/03/03 11:24:05;;;;;;;20.95;18.15;;;;;;;15.66;40.37;95911.03;4895222;29;20075;-80
2021/03/03 11:26:30;;;;;;;21.10;15.05;;;;;;;15.64;38.69;95936.50;4894257;29;20040;-79
2021/03/03 11:28:55;;;;;;;21.30;16.40;;;;;;;14.75;41.08;95925.91;4893932;29;20410;-76
2021/03/03 11:31:21;;;;;;;25.55;17.08;;;;;;;14.90;41.16;95926.78;4894065;29;20036;-80
2021/03/03 11:33:46;;;;;;;22.40;17.30;;;;;;;14.59;41.56;95924.19;4895216;29;20039;-79
2021/03/03 11:36:12;;;;;;;23.80;15.98;;;;;;;15.42;38.66;95913.00;4893951;29;20394;-79
2021/03/03 11:38:37;;;;;;;14.30;12.90;;;;;;;16.01;35.86;95909.53;4894867;29;20048;-77
2021/03/03 11:41:03;;;;;;;15.02;13.27;;;;;;;15.00;37.48;95905.69;4894337;29;20033;-78
2021/03/03 11:43:28;;;;;;;25.92;17.80;;;;;;;15.09;39.91;95905.44;4894180;29;20020;-79
2021/03/03 11:45:54;;;;;;;19.38;16.55;;;;;;;15.27;38.02;95903.38;4892810;29;20052;-81
2021/03/03 11:48:20;;;;;;;18.73;15.38;;;;;;;14.60;39.21;95897.16;4894042;29;20032;-80
2021/03/03 11:50:45;;;;;;;21.75;15.88;;;;;;;15.34;38.80;95900.84;4893327;29;20029;-79
2021/03/03 11:53:10;;;;;;;20.05;14.65;;;;;;;15.60;37.88;95898.69;4894325;29;20376;-81
2021/03/03 11:55:36;;;;;;;20.65;15.05;;;;;;;15.82;37.75;95897.81;4894129;29;20028;-82
2021/03/03 11:58:01;;;;;;;18.77;14.43;;;;;;;15.11;37.80;95900.06;4894547;29;20037;-76
2021/03/03 12:00:27;;;;;;;17.50;15.48;;;;;;;14.90;39.28;95898.09;4893631;29;20033;-80
2021/03/03 12:02:53;;;;;;;24.35;16.27;;;;;;;14.77;38.82;95893.44;4894878;29;20056;-79
2021/03/03 12:05:18;;;;;;;15.60;13.23;;;;;;;15.52;38.84;95895.34;4892884;29;20401;-81
2021/03/03 12:07:44;;;;;;;18.77;14.82;;;;;;;16.07;38.48;95894.94;4894777;29;20036;-80
2021/03/03 12:10:09;;;;;;;17.10;15.27;;;;;;;15.69;38.08;95897.63;4892914;29;20487;-79
2021/03/03 12:12:35;;;;;;;18.92;15.32;;;;;;;15.29;38.86;95884.91;4893680;29;20048;-81
2021/03/03 12:15:00;;;;;;;18.80;15.82;;;;;;;15.49;38.09;95890.47;4892978;29;20032;-81
2021/03/03 12:17:27;;;;;;;19.92;15.75;;;;;;;16.11;37.54;95894.41;4891856;29;20441;-80
2021/03/03 12:19:53;;;;;;;22.17;16.10;;;;;;;15.58;37.31;95890.22;4893189;29;20033;-80
2021/03/03 12:22:19;;;;;;;23.10;15.95;;;;;;;15.06;40.24;95892.75;4893559;29;20037;-80
2021/03/03 12:24:44;;;;;;;22.35;16.63;;;;;;;15.77;38.10;95884.47;4894100;29;20537;-80
2021/03/03 12:27:10;;;;;;;21.20;14.85;;;;;;;16.07;36.58;95880.06;4892082;29;20044;-78
2021/03/03 12:29:35;;;;;;;23.17;16.27;;;;;;;15.71;39.33;95881.75;4893393;29;20816;-80
2021/03/03 12:32:01;;;;;;;20.42;15.18;;;;;;;15.48;37.70;95875.78;4893457;29;20037;-79
2021/03/03 12:34:26;;;;;;;16.77;14.15;;;;;;;15.56;37.69;95873.91;4892871;29;20084;-80
2021/03/03 12:36:52;;;;;;;18.38;15.95;;;;;;;15.22;39.10;95876.97;4893834;29;20048;-80
2021/03/03 12:39:17;;;;;;;18.17;15.18;;;;;;;15.81;38.85;95872.69;4892994;29;20043;-81
2021/03/03 12:41:43;;;;;;;14.85;13.20;;;;;;;15.99;36.70;95861.06;4894301;29;20044;-80
2021/03/03 12:44:09;;;;;;;15.98;12.02;;;;;;;15.81;34.61;95869.25;4892334;29;20048;-81
2021/03/03 12:46:34;;;;;;;17.67;13.45;;;;;;;15.97;37.06;95866.44;4891722;29;20036;-80
2021/03/03 12:48:59;;;;;;;13.90;11.23;;;;;;;15.60;35.87;95867.34;4892920;29;20491;-79
2021/03/03 12:51:25;;;;;;;14.32;11.88;;;;;;;15.25;36.94;95866.16;4892427;29;20040;-83
2021/03/03 12:53:50;;;;;;;14.90;11.93;;;;;;;16.20;34.45;95864.53;4893138;29;20029;-80
2021/03/03 12:56:16;;;;;;;18.17;12.48;;;;;;;15.16;35.66;95863.81;4892815;29;20144;-80
2021/03/03 12:58:41;;;;;;;18.85;13.00;;;;;;;15.36;37.56;95864.94;4892198;29;20104;-84
2021/03/03 13:01:09;;;;;;;16.67;12.35;;;;;;;16.19;35.44;95862.91;4892184;29;20176;-80
2021/03/03 13:03:34;;;;;;;20.48;12.32;;;;;;;16.40;35.46;95833.41;4891905;29;20021;-82
2021/03/03 13:06:00;;;;;;;17.98;13.07;;;;;;;16.59;35.82;95855.56;4872694;29;20032;-83
2021/03/03 13:08:25;;;;;;;17.48;13.27;;;;;;;16.19;35.46;95852.47;4874995;29;20146;-82
2021/03/03 13:10:51;;;;;;;14.60;11.18;;;;;;;16.20;35.43;95846.25;4873458;29;20032;-81
2021/03/03 13:13:17;;;;;;;18.52;13.20;;;;;;;16.19;34.90;95847.22;4873194;29;20537;-82
2021/03/03 13:15:42;;;;;;;16.75;12.68;;;;;;;15.80;34.16;95844.91;4874585;29;20029;-86
2021/03/03 13:18:08;;;;;;;20.88;12.27;;;;;;;15.71;35.44;95838.16;4873857;29;20077;-83
2021/03/03 13:20:33;;;;;;;23.98;12.68;;;;;;;15.56;34.26;95813.84;4873874;29;20108;-84
2021/03/03 13:22:59;;;;;;;25.88;11.73;;;;;;;16.02;33.74;95840.56;4888280;29;20077;-82
2021/03/03 13:25:26;;;;;;;13.00;9.98;;;;;;;16.06;33.82;95834.00;4886290;29;20044;-82
2021/03/03 13:27:51;;;;;;;19.85;10.55;;;;;;;15.89;34.04;95840.44;4888042;29;20135;-81
2021/03/03 13:30:19;;;;;;;11.20;9.70;;;;;;;16.14;34.27;95839.13;4891413;29;20025;-85
2021/03/03 13:32:44;;;;;;;16.80;10.95;;;;;;;16.11;33.64;95834.28;4892199;29;20577;-82
2021/03/03 13:35:10;;;;;;;9.13;8.23;;;;;;;16.23;31.83;95834.59;4892437;29;20028;-82
2021/03/03 13:37:36;;;;;;;14.73;8.35;;;;;;;16.55;31.74;95834.19;4889615;29;20119;-79
2021/03/03 13:40:03;;;;;;;8.70;7.80;;;;;;;16.43;34.21;95827.00;4888583;29;20029;-83
2021/03/03 13:42:29;;;;;;;28.70;9.18;;;;;;;16.08;32.35;95833.81;4889645;29;20399;-83
2021/03/03 13:44:54;;;;;;;9.60;6.28;;;;;;;16.46;30.93;95832.66;4886503;29;20040;-84
2021/03/03 13:47:20;;;;;;;10.02;6.38;;;;;;;16.38;30.74;95824.09;4893003;29;20084;-83
2021/03/03 13:49:45;;;;;;;7.57;6.18;;;;;;;16.43;31.73;95816.53;4889865;29;20041;-84
2021/03/03 13:52:11;;;;;;;6.85;5.90;;;;;;;16.50;31.25;95817.41;4891803;29;20024;-82
2021/03/03 13:54:36;;;;;;;6.97;6.15;;;;;;;16.40;31.27;95815.09;4893302;29;20036;-84
2021/03/03 13:57:02;;;;;;;7.50;4.90;;;;;;;16.10;29.37;95808.31;4892210;29;20028;-84
2021/03/03 13:59:27;;;;;;;7.57;5.20;;;;;;;16.14;31.13;95812.19;4892365;29;20150;-81
2021/03/03 14:01:53;;;;;;;6.22;5.65;;;;;;;16.34;30.56;95802.78;4890928;29;20970;-85
2021/03/03 14:04:18;;;;;;;6.43;5.07;;;;;;;16.35;30.10;95804.38;4889097;29;20036;-81
2021/03/03 14:06:44;;;;;;;4.95;4.53;;;;;;;16.43;30.04;95793.81;4890588;29;20029;-85
2021/03/03 14:09:10;;;;;;;7.18;4.75;;;;;;;16.27;29.32;95794.03;4890288;29;20102;-84
2021/03/03 14:11:35;;;;;;;5.45;4.95;;;;;;;16.36;29.91;95785.09;4886001;29;20060;-85
2021/03/03 14:14:01;;;;;;;6.43;5.03;;;;;;;16.14;30.12;95786.88;4892704;29;20021;-85
2021/03/03 14:16:26;;;;;;;5.40;4.53;;;;;;;16.40;29.68;95780.28;4889217;29;20041;-78
2021/03/03 14:18:51;;;;;;;8.00;5.13;;;;;;;16.27;30.49;95775.75;4887743;29;20051;-82
2021/03/03 14:21:19;;;;;;;6.65;5.28;;;;;;;16.48;31.10;95774.94;4889476;29;20051;-81
2021/03/03 14:23:44;;;;;;;11.52;4.82;;;;;;;16.48;31.18;95778.34;4887435;29;20043;-82
2021/03/03 14:26:10;;;;;;;5.55;5.05;;;;;;;16.43;30.23;95766.84;4888098;29;20020;-83
2021/03/03 14:28:35;;;;;;;6.82;5.28;;;;;;;16.35;30.56;95765.16;4882343;29;20494;-82
2021/03/03 14:31:01;;;;;;;6.00;5.20;;;;;;;16.31;31.74;95762.09;4879148;29;20400;-83
2021/03/03 14:33:26;;;;;;;5.80;5.30;;;;;;;16.37;30.97;95760.56;4881744;29;20041;-85
2021/03/03 14:35:52;;;;;;;9.60;5.05;;;;;;;16.47;30.62;95768.09;4879909;29;20108;-85
2021/03/03 14:38:22;;;;;;;5.20;4.70;;;;;;;16.53;30.45;95755.09;4882430;29;20320;-81
2021/03/03 14:40:48;;;;;;;5.20;4.20;;;;;;;16.45;30.61;95763.03;4878178;29;20033;-84
2021/03/03 14:43:13;;;;;;;13.10;4.45;;;;;;;16.25;30.89;95756.78;4883402;29;20048;-84
2021/03/03 14:45:39;;;;;;;6.32;4.72;;;;;;;16.15;30.61;95757.09;4878172;29;20036;-84
2021/03/03 14:48:05;;;;;;;4.53;4.13;;;;;;;16.09;31.22;95757.03;4881605;29;20028;-84
2021/03/03 14:50:30;;;;;;;6.25;4.43;;;;;;;16.11;31.71;95761.09;4878839;29;20414;-83
2021/03/03 14:52:56;;;;;;;4.28;3.90;;;;;;;16.00;31.20;95758.94;4876335;29;20017;-84
2021/03/03 14:55:21;;;;;;;5.78;4.40;;;;;;;15.95;30.53;95756.09;4878101;29;20036;-83
2021/03/03 14:57:47;;;;;;;5.13;4.57;;;;;;;15.99;30.59;95751.31;4876647;29;20037;-83
2021/03/03 15:00:13;;;;;;;7.50;3.72;;;;;;;16.06;30.69;95752.16;4877918;29;20033;-83
2021/03/03 15:02:38;;;;;;;4.40;4.00;;;;;;;15.95;31.74;95750.06;4877059;29;20039;-86
2021/03/03 15:05:05;;;;;;;5.05;4.10;;;;;;;15.94;31.67;95744.00;4882880;29;20032;-85
2021/03/03 15:07:31;;;;;;;5.97;4.65;;;;;;;15.91;31.81;95760.06;4876518;29;20613;-83
2021/03/03 15:09:56;;;;;;;5.50;4.40;;;;;;;15.73;31.68;95751.81;4891797;29;20029;-85
2021/03/03 15:12:22;;;;;;;5.13;4.63;;;;;;;15.54;31.82;95754.97;4876378;29;20416;-84
2021/03/03 15:14:47;;;;;;;4.70;3.97;;;;;;;15.38;32.71;95752.53;4892427;29;20033;-85
2021/03/03 15:17:13;;;;;;;8.60;4.43;;;;;;;15.34;32.85;95748.66;4891211;29;20029;-86
2021/03/03 15:19:38;;;;;;;8.90;4.63;;;;;;;15.41;32.88;95745.13;4892414;29;20101;-87
2021/03/03 15:22:04;;;;;;;5.88;5.35;;;;;;;15.21;34.20;95747.47;4894720;29;20036;-85
2021/03/03 15:24:29;;;;;;;8.02;5.15;;;;;;;15.30;34.06;95740.34;4877607;29;20036;-82
2021/03/03 15:26:55;;;;;;;5.65;4.80;;;;;;;15.40;33.78;95747.91;4895821;29;20045;-82
2021/03/03 15:29:20;;;;;;;6.63;4.75;;;;;;;15.42;34.36;95743.31;4894394;29;20029;-84
2021/03/03 15:31:46;;;;;;;5.22;4.60;;;;;;;15.23;35.17;95750.72;4894691;29;20889;-82
2021/03/03 15:34:11;;;;;;;5.93;4.78;;;;;;;15.29;34.70;95752.59;4894377;29;20049;-84
2021/03/03 15:36:37;;;;;;;5.10;4.00;;;;;;;15.05;35.43;95742.41;4893359;29;20028;-85
2021/03/03 15:39:03;;;;;;;7.97;4.90;;;;;;;14.89;35.86;95750.41;4895225;29;20422;-85
2021/03/03 15:41:29;;;;;;;6.10;4.18;;;;;;;14.90;35.51;95749.41;4893200;29;20036;-86
2021/03/03 15:43:54;;;;;;;7.70;5.32;;;;;;;14.62;36.63;95746.56;4895151;29;20191;-84
2021/03/03 15:46:20;;;;;;;5.43;4.10;;;;;;;14.40;38.00;95743.97;4887975;29;20037;-83
2021/03/03 15:48:45;;;;;;;6.40;4.05;;;;;;;14.12;38.72;95739.25;4892597;29;20041;-86
2021/03/03 15:51:11;;;;;;;6.20;4.68;;;;;;;13.92;38.78;95742.47;4893236;29;20505;-85
2021/03/03 15:53:36;;;;;;;39.53;27.33;;;;;;;13.66;40.85;95740.97;4894717;29;20025;-86
2021/03/03 15:56:02;;;;;;;29.58;21.10;;;;;;;13.37;41.95;95742.53;4893213;29;20033;-86
2021/03/03 15:58:27;;;;;;;12.23;8.48;;;;;;;13.03;42.31;95737.59;4892714;29;20033;-86
2021/03/03 16:00:54;;;;;;;10.93;5.45;;;;;;;12.76;42.89;95738.75;4892999;29;20029;-87
2021/03/03 16:03:19;;;;;;;14.73;6.57;;;;;;;12.41;43.68;95741.69;4893506;29;20035;-85
2021/03/03 16:05:45;;;;;;;14.25;7.65;;;;;;;12.31;45.21;95744.44;4893463;29;20040;-80
2021/03/03 16:08:10;;;;;;;8.27;7.60;;;;;;;12.25;45.22;95752.91;4885442;29;20033;-86
2021/03/03 16:10:36;;;;;;;9.93;9.07;;;;;;;11.99;45.42;95754.78;4882605;29;20035;-85
2021/03/03 16:13:01;;;;;;;11.73;6.85;;;;;;;11.40;46.52;95753.09;4884270;29;20036;-87
2021/03/03 16:15:26;;;;;;;11.25;9.50;;;;;;;10.95;47.32;95758.53;4886876;29;20037;-89
2021/03/03 16:17:52;;;;;;;18.17;11.65;;;;;;;10.77;48.09;95756.00;4885290;29;20084;-86
2021/03/03 16:20:17;;;;;;;17.77;13.02;;;;;;;10.54;48.65;95763.47;4884184;29;20044;-89
2021/03/03 16:22:43;;;;;;;11.23;9.70;;;;;;;10.34;48.35;95761.19;4885929;29;20035;-88
2021/03/03 16:25:09;;;;;;;9.40;7.07;;;;;;;10.04;49.08;95767.53;4885343;29;20075;-87
2021/03/03 16:27:35;;;;;;;14.18;9.60;;;;;;;9.77;50.60;95770.13;4885026;29;20040;-86
2021/03/03 16:30:00;;;;;;;11.00;7.93;;;;;;;9.61;50.53;95773.38;4892574;29;20088;-84
2021/03/03 16:32:26;;;;;;;15.10;8.73;;;;;;;9.57;50.88;95773.81;4896189;29;20033;-86
2021/03/03 16:34:53;;;;;;;11.90;8.30;;;;;;;9.47;50.42;95773.88;4885183;29;20044;-87
2021/03/03 16:37:18;;;;;;;12.40;7.40;;;;;;;9.35;50.32;95773.22;4888080;29;20033;-84
2021/03/03 16:39:44;;;;;;;15.80;7.40;;;;;;;9.42;49.82;95773.47;4881030;29;20036;-87
2021/03/03 16:42:10;;;;;;;87.65;43.83;;;;;;;9.30;50.24;95779.78;4878056;29;20029;-85
2021/03/03 16:52:22;;;;;;;28.95;16.10;;;;;;;8.60;52.52;95775.06;5801744;23;20733;-86
2021/03/03 16:54:48;;;;;;;17.92;13.18;;;;;;;8.55;52.52;95782.41;4882283;29;20030;-84
2021/03/03 17:28:15;;;;;;;19.25;10.50;;;;;;;5.69;55.93;95637.88;5436541;23;20055;-83
2021/03/03 17:30:43;;;;;;;9.75;5.50;;;;;;;6.67;56.37;95806.44;4905058;29;20052;-83
2021/03/03 17:33:09;;;;;;;16.13;10.50;;;;;;;5.38;56.41;95613.84;4921610;29;20069;-83
2021/03/03 17:40:45;;;;;;;10.55;8.65;;;;;;;6.37;55.88;95802.00;5704204;23;20068;-83
2021/03/03 17:56:09;;;;;;;10.00;8.98;;;;;;;6.11;57.45;95809.25;5996426;23;20024;-78
2021/03/03 17:58:46;;;;;;;13.68;9.00;;;;;;;5.63;57.35;95762.50;4901867;29;20029;-84
2021/03/03 18:01:14;;;;;;;15.32;10.88;;;;;;;6.01;56.77;95810.09;4873977;29;20021;-85
2021/03/03 18:09:11;;;;;;;66.18;41.13;;;;;;;5.56;58.50;95805.03;5531966;23;20035;-83
2021/03/03 18:14:12;;;;;;;91.45;51.00;;;;;;;4.33;59.08;95626.41;4901108;29;20071;-85
2021/03/03 18:16:38;;;;;;;87.95;53.28;;;;;;;4.75;57.98;95660.78;4872120;29;20009;-85
2021/03/03 18:19:03;;;;;;;110.95;70.18;;;;;;;5.40;58.20;95766.06;4887773;29;20023;-84
2021/03/03 18:21:29;;;;;;;86.30;50.63;;;;;;;5.65;57.68;95796.59;4857875;29;20096;-84
2021/03/03 18:23:54;;;;;;;97.35;60.67;;;;;;;5.45;58.66;95791.41;4903161;29;20013;-84
2021/03/03 18:26:20;;;;;;;47.38;26.92;;;;;;;5.44;57.83;95790.56;4871459;29;20013;-83
2021/03/03 18:28:46;;;;;;;44.58;26.52;;;;;;;5.37;58.66;95802.25;4871692;29;20017;-82
2021/03/03 18:31:11;;;;;;;61.80;41.40;;;;;;;5.45;58.34;95793.97;4887992;29;20111;-83